sensor_id;sensor_type;location;lat;lon;timestamp;pressure;altitude;pressure_sealevel;temperature;humidity
8573;BME280;4324;42.012;24.872;2023-01-23T00:02:16;99674.19;;;9.73;100.00
8573;BME280;4324;42.012;24.872;2023-01-23T00:04:43;99664.16;;;9.66;100.00
8573;BME280;4324;42.012;24.872;2023-01-23T00:07:10;99651.13;;;9.55;100.00
8573;BME280;4324;42.012;24.872;2023-01-23T00:09:37;99647.50;;;9.56;100.00
8573;BME280;4324;42.012;24.872;2023-01-23T00:12:06;99666.28;;;9.63;100.00
8573;BME280;4324;42.012;24.872;2023-01-23T00:14:32;99675.03;;;9.63;100.00
8573;BME280;4324;42.012;24.872;2023-01-23T00:16:59;99670.34;;;9.57;100.00
8573;BME280;4324;42.012;24.872;2023-01-23T00:19:26;99670.34;;;9.57;100.00
8573;BME280;4324;42.012;24.872;2023-01-23T00:21:53;99622.94;;;9.27;100.00
8573;BME280;4324;42.012;24.872;2023-01-23T00:24:20;99669.34;;;9.58;100.00
8573;BME280;4324;42.012;24.872;2023-01-23T00:26:47;99673.94;;;9.56;100.00
8573;BME280;4324;42.012;24.872;2023-01-23T00:29:15;99675.19;;;9.52;100.00
8573;BME280;4324;42.012;24.872;2023-01-23T00:31:42;99674.25;;;9.53;100.00
8573;BME280;4324;42.012;24.872;2023-01-23T00:34:13;99676.19;;;9.51;100.00
8573;BME280;4324;42.012;24.872;2023-01-23T00:36:42;99642.69;;;9.32;100.00
8573;BME280;4324;42.012;24.872;2023-01-23T00:39:15;99669.09;;;9.52;100.00
8573;BME280;4324;42.012;24.872;2023-01-23T00:41:43;99677.28;;;9.58;100.00
8573;BME280;4324;42.012;24.872;2023-01-23T00:44:10;99674.38;;;9.52;100.00
8573;BME280;4324;42.012;24.872;2023-01-23T00:46:38;99682.56;;;9.58;100.00
8573;BME280;4324;42.012;24.872;2023-01-23T00:49:06;99674.81;;;9.47;100.00
8573;BME280;4324;42.012;24.872;2023-01-23T00:51:33;99687.03;;;9.58;100.00
8573;BME280;4324;42.012;24.872;2023-01-23T00:54:00;99665.63;;;9.41;100.00
8573;BME280;4324;42.012;24.872;2023-01-23T00:56:27;99686.88;;;9.59;100.00
8573;BME280;4324;42.012;24.872;2023-01-23T00:58:54;99685.06;;;9.60;100.00
8573;BME280;4324;42.012;24.872;2023-01-23T01:01:21;99679.94;;;9.58;100.00
8573;BME280;4324;42.012;24.872;2023-01-23T01:03:49;99689.25;;;9.62;100.00
8573;BME280;4324;42.012;24.872;2023-01-23T01:06:16;99675.19;;;9.52;100.00
8573;BME280;4324;42.012;24.872;2023-01-23T01:08:43;99687.59;;;9.61;100.00
8573;BME280;4324;42.012;24.872;2023-01-23T01:11:10;99685.38;;;9.57;100.00
8573;BME280;4324;42.012;24.872;2023-01-23T01:13:37;99703.16;;;9.64;100.00
8573;BME280;4324;42.012;24.872;2023-01-23T01:16:05;99683.28;;;9.51;100.00
8573;BME280;4324;42.012;24.872;2023-01-23T01:18:33;99685.38;;;9.47;100.00
8573;BME280;4324;42.012;24.872;2023-01-23T01:21:05;99705.38;;;9.59;100.00
8573;BME280;4324;42.012;24.872;2023-01-23T01:23:32;99706.38;;;9.58;100.00
8573;BME280;4324;42.012;24.872;2023-01-23T01:25:59;99697.19;;;9.53;100.00
8573;BME280;4324;42.012;24.872;2023-01-23T01:28:26;99707.63;;;9.54;100.00
8573;BME280;4324;42.012;24.872;2023-01-23T01:30:54;99627.59;;;9.05;100.00
8573;BME280;4324;42.012;24.872;2023-01-23T01:33:21;99696.63;;;9.49;100.00
8573;BME280;4324;42.012;24.872;2023-01-23T01:35:50;99714.59;;;9.55;100.00
8573;BME280;4324;42.012;24.872;2023-01-23T01:38:18;99685.13;;;9.31;100.00
8573;BME280;4324;42.012;24.872;2023-01-23T01:40:45;99716.00;;;9.50;100.00
8573;BME280;4324;42.012;24.872;2023-01-23T01:43:17;99714.63;;;9.45;100.00
8573;BME280;4324;42.012;24.872;2023-01-23T01:46:10;99715.72;;;9.43;100.00
8573;BME280;4324;42.012;24.872;2023-01-23T01:48:41;99699.19;;;9.31;100.00
8573;BME280;4324;42.012;24.872;2023-01-23T01:51:15;99689.59;;;9.20;100.00
8573;BME280;4324;42.012;24.872;2023-01-23T01:53:47;99714.34;;;9.29;100.00
8573;BME280;4324;42.012;24.872;2023-01-23T01:56:16;99716.00;;;9.30;100.00
8573;BME280;4324;42.012;24.872;2023-01-23T01:58:46;99703.22;;;9.16;100.00
8573;BME280;4324;42.012;24.872;2023-01-23T02:01:15;99701.81;;;9.12;100.00
8573;BME280;4324;42.012;24.872;2023-01-23T02:03:44;99713.50;;;9.19;100.00
8573;BME280;4324;42.012;24.872;2023-01-23T02:06:11;99724.91;;;9.19;100.00
8573;BME280;4324;42.012;24.872;2023-01-23T02:08:43;99730.50;;;9.16;100.00
8573;BME280;4324;42.012;24.872;2023-01-23T02:11:14;99726.31;;;9.14;100.00
8573;BME280;4324;42.012;24.872;2023-01-23T02:13:43;99729.66;;;9.16;100.00
8573;BME280;4324;42.012;24.872;2023-01-23T02:16:12;99730.75;;;9.13;100.00
8573;BME280;4324;42.012;24.872;2023-01-23T02:18:41;99719.91;;;9.07;100.00
8573;BME280;4324;42.012;24.872;2023-01-23T02:21:10;99722.41;;;9.08;100.00
8573;BME280;4324;42.012;24.872;2023-01-23T02:23:47;99709.63;;;9.04;100.00
8573;BME280;4324;42.012;24.872;2023-01-23T02:26:21;99719.06;;;9.06;100.00
8573;BME280;4324;42.012;24.872;2023-01-23T02:28:51;99706.00;;;8.95;100.00
8573;BME280;4324;42.012;24.872;2023-01-23T02:31:20;99689.31;;;8.85;100.00
8573;BME280;4324;42.012;24.872;2023-01-23T02:33:50;99713.38;;;9.01;100.00
8573;BME280;4324;42.012;24.872;2023-01-23T02:36:19;99732.69;;;9.11;100.00
8573;BME280;4324;42.012;24.872;2023-01-23T02:38:51;99726.28;;;9.04;100.00
8573;BME280;4324;42.012;24.872;2023-01-23T02:41:24;99716.16;;;9.00;100.00
8573;BME280;4324;42.012;24.872;2023-01-23T02:43:53;99736.31;;;9.10;100.00
8573;BME280;4324;42.012;24.872;2023-01-23T02:46:20;99731.31;;;9.07;100.00
8573;BME280;4324;42.012;24.872;2023-01-23T02:48:47;99724.06;;;9.00;100.00
8573;BME280;4324;42.012;24.872;2023-01-23T02:51:14;99732.81;;;9.00;100.00
8573;BME280;4324;42.012;24.872;2023-01-23T02:53:42;99731.88;;;9.01;100.00
8573;BME280;4324;42.012;24.872;2023-01-23T02:56:09;99730.19;;;9.00;100.00
8573;BME280;4324;42.012;24.872;2023-01-23T02:58:38;99736.59;;;9.07;100.00
8573;BME280;4324;42.012;24.872;2023-01-23T03:01:23;99730.63;;;9.05;100.00
8573;BME280;4324;42.012;24.872;2023-01-23T03:03:52;99715.75;;;8.94;100.00
8573;BME280;4324;42.012;24.872;2023-01-23T03:06:21;99739.66;;;9.12;100.00
8573;BME280;4324;42.012;24.872;2023-01-23T03:08:48;99745.50;;;9.16;100.00
8573;BME280;4324;42.012;24.872;2023-01-23T03:11:17;99744.25;;;9.20;100.00
8573;BME280;4324;42.012;24.872;2023-01-23T03:13:46;99727.56;;;9.10;100.00
8573;BME280;4324;42.012;24.872;2023-01-23T03:16:13;99738.81;;;9.21;100.00
8573;BME280;4324;42.012;24.872;2023-01-23T03:18:40;99734.66;;;9.29;100.00
8573;BME280;4324;42.012;24.872;2023-01-23T03:21:07;99748.44;;;9.42;100.00
8573;BME280;4324;42.012;24.872;2023-01-23T03:23:38;99739.78;;;9.40;100.00
8573;BME280;4324;42.012;24.872;2023-01-23T03:26:06;99736.59;;;9.46;100.00
8573;BME280;4324;42.012;24.872;2023-01-23T03:28:33;99734.06;;;9.44;100.00
8573;BME280;4324;42.012;24.872;2023-01-23T03:31:18;99733.25;;;9.44;100.00
8573;BME280;4324;42.012;24.872;2023-01-23T03:33:45;99733.25;;;9.44;100.00
8573;BME280;4324;42.012;24.872;2023-01-23T03:36:13;99740.19;;;9.45;100.00
8573;BME280;4324;42.012;24.872;2023-01-23T03:38:40;99732.69;;;9.40;100.00
8573;BME280;4324;42.012;24.872;2023-01-23T03:41:27;99735.22;;;9.42;100.00
8573;BME280;4324;42.012;24.872;2023-01-23T03:43:54;99725.59;;;9.41;100.00
8573;BME280;4324;42.012;24.872;2023-01-23T03:46:22;99749.50;;;9.49;100.00
8573;BME280;4324;42.012;24.872;2023-01-23T03:48:49;99702.66;;;9.22;100.00
8573;BME280;4324;42.012;24.872;2023-01-23T03:51:16;99745.47;;;9.45;100.00
8573;BME280;4324;42.012;24.872;2023-01-23T03:53:43;99739.78;;;9.40;100.00
8573;BME280;4324;42.012;24.872;2023-01-23T03:56:10;99735.47;;;9.39;100.00
8573;BME280;4324;42.012;24.872;2023-01-23T03:58:37;99633.16;;;8.73;100.00
8573;BME280;4324;42.012;24.872;2023-01-23T04:01:05;99731.03;;;9.39;100.00
8573;BME280;4324;42.012;24.872;2023-01-23T04:03:34;99750.75;;;9.45;100.00
8573;BME280;4324;42.012;24.872;2023-01-23T04:06:01;99747.44;;;9.43;100.00
8573;BME280;4324;42.012;24.872;2023-01-23T04:08:28;99745.47;;;9.45;100.00
8573;BME280;4324;42.012;24.872;2023-01-23T04:11:02;99734.66;;;9.38;100.00
8573;BME280;4324;42.012;24.872;2023-01-23T04:13:30;99757.88;;;9.44;100.00
8573;BME280;4324;42.012;24.872;2023-01-23T04:15:58;99738.53;;;9.34;100.00
8573;BME280;4324;42.012;24.872;2023-01-23T04:18:25;99765.25;;;9.41;100.00
8573;BME280;4324;42.012;24.872;2023-01-23T04:20:53;99770.53;;;9.41;100.00
8573;BME280;4324;42.012;24.872;2023-01-23T04:23:20;99764.56;;;9.39;100.00
8573;BME280;4324;42.012;24.872;2023-01-23T04:25:48;99772.22;;;9.42;100.00
8573;BME280;4324;42.012;24.872;2023-01-23T04:28:15;99772.22;;;9.42;100.00
8573;BME280;4324;42.012;24.872;2023-01-23T04:30:42;99777.63;;;9.40;100.00
8573;BME280;4324;42.012;24.872;2023-01-23T04:33:09;99773.31;;;9.39;100.00
8573;BME280;4324;42.012;24.872;2023-01-23T04:35:36;99779.44;;;9.40;100.00
8573;BME280;4324;42.012;24.872;2023-01-23T04:38:04;99792.81;;;9.38;100.00
8573;BME280;4324;42.012;24.872;2023-01-23T04:40:31;99785.00;;;9.37;100.00
8573;BME280;4324;42.012;24.872;2023-01-23T04:42:58;99789.44;;;9.36;100.00
8573;BME280;4324;42.012;24.872;2023-01-23T04:45:25;99709.91;;;8.91;100.00
8573;BME280;4324;42.012;24.872;2023-01-23T04:47:52;99773.44;;;9.18;100.00
8573;BME280;4324;42.012;24.872;2023-01-23T04:50:19;99788.91;;;9.33;100.00
8573;BME280;4324;42.012;24.872;2023-01-23T04:52:46;99767.19;;;9.19;100.00
8573;BME280;4324;42.012;24.872;2023-01-23T04:55:14;99803.22;;;9.40;100.00
8573;BME280;4324;42.012;24.872;2023-01-23T04:57:41;99798.78;;;9.40;100.00
8573;BME280;4324;42.012;24.872;2023-01-23T05:00:09;99800.84;;;9.37;100.00
8573;BME280;4324;42.012;24.872;2023-01-23T05:02:36;99801.69;;;9.28;100.00
8573;BME280;4324;42.012;24.872;2023-01-23T05:05:04;99791.94;;;9.18;100.00
8573;BME280;4324;42.012;24.872;2023-01-23T05:07:31;99796.81;;;9.13;100.00
8573;BME280;4324;42.012;24.872;2023-01-23T05:09:58;99808.06;;;9.15;100.00
8573;BME280;4324;42.012;24.872;2023-01-23T05:12:27;99790.94;;;9.00;100.00
8573;BME280;4324;42.012;24.872;2023-01-23T05:14:53;99726.78;;;8.59;100.00
8573;BME280;4324;42.012;24.872;2023-01-23T05:17:20;99809.44;;;9.00;100.00
8573;BME280;4324;42.012;24.872;2023-01-23T05:19:48;99831.69;;;9.07;100.00
8573;BME280;4324;42.012;24.872;2023-01-23T05:22:15;99815.53;;;8.91;100.00
8573;BME280;4324;42.012;24.872;2023-01-23T05:24:42;99855.88;;;9.03;100.00
8573;BME280;4324;42.012;24.872;2023-01-23T05:27:09;99840.97;;;8.92;100.00
8573;BME280;4324;42.012;24.872;2023-01-23T05:29:38;99831.41;;;8.91;100.00
8573;BME280;4324;42.012;24.872;2023-01-23T05:32:05;99828.19;;;8.87;100.00
8573;BME280;4324;42.012;24.872;2023-01-23T05:34:32;99833.88;;;8.83;100.00
8573;BME280;4324;42.012;24.872;2023-01-23T05:36:59;99825.38;;;8.79;100.00
8573;BME280;4324;42.012;24.872;2023-01-23T05:39:26;99828.16;;;8.78;100.00
8573;BME280;4324;42.012;24.872;2023-01-23T05:41:52;99838.88;;;8.86;100.00
8573;BME280;4324;42.012;24.872;2023-01-23T05:44:19;99847.09;;;8.92;100.00
8573;BME280;4324;42.012;24.872;2023-01-23T05:46:48;99847.50;;;8.88;100.00
8573;BME280;4324;42.012;24.872;2023-01-23T05:49:15;99860.28;;;8.83;100.00
8573;BME280;4324;42.012;24.872;2023-01-23T05:51:42;99857.75;;;8.81;100.00
8573;BME280;4324;42.012;24.872;2023-01-23T05:54:09;99857.19;;;8.78;100.00
8573;BME280;4324;42.012;24.872;2023-01-23T05:56:36;99863.59;;;8.75;100.00
8573;BME280;4324;42.012;24.872;2023-01-23T05:59:03;99842.94;;;8.59;100.00
8573;BME280;4324;42.012;24.872;2023-01-23T06:01:30;99848.78;;;8.63;100.00
8573;BME280;4324;42.012;24.872;2023-01-23T06:03:59;99867.53;;;8.60;100.00
8573;BME280;4324;42.012;24.872;2023-01-23T06:06:26;99887.88;;;8.69;100.00
8573;BME280;4324;42.012;24.872;2023-01-23T06:08:53;99891.63;;;8.66;100.00
8573;BME280;4324;42.012;24.872;2023-01-23T06:11:20;99874.44;;;8.51;100.00
8573;BME280;4324;42.012;24.872;2023-01-23T06:13:47;99857.72;;;8.41;100.00
8573;BME280;4324;42.012;24.872;2023-01-23T06:16:14;99889.06;;;8.55;100.00
8573;BME280;4324;42.012;24.872;2023-01-23T06:18:41;99909.53;;;8.63;100.00
8573;BME280;4324;42.012;24.872;2023-01-23T06:21:09;99887.91;;;8.48;100.00
8573;BME280;4324;42.012;24.872;2023-01-23T06:23:36;99894.81;;;8.60;100.00
8573;BME280;4324;42.012;24.872;2023-01-23T06:26:04;99901.50;;;8.64;100.00
8573;BME280;4324;42.012;24.872;2023-01-23T06:28:31;99900.50;;;8.65;100.00
8573;BME280;4324;42.012;24.872;2023-01-23T06:31:00;99908.59;;;8.73;100.00
8573;BME280;4324;42.012;24.872;2023-01-23T06:33:28;99913.63;;;8.77;100.00
8573;BME280;4324;42.012;24.872;2023-01-23T06:35:57;99916.94;;;8.79;100.00
8573;BME280;4324;42.012;24.872;2023-01-23T06:38:25;99918.47;;;8.71;100.00
8573;BME280;4324;42.012;24.872;2023-01-23T06:40:52;99926.97;;;8.75;100.00
8573;BME280;4324;42.012;24.872;2023-01-23T06:43:19;99941.97;;;8.75;100.00
8573;BME280;4324;42.012;24.872;2023-01-23T06:45:46;99944.59;;;8.75;100.00
8573;BME280;4324;42.012;24.872;2023-01-23T06:48:13;99924.13;;;8.67;100.00
8573;BME280;4324;42.012;24.872;2023-01-23T06:50:41;99951.44;;;8.77;100.00
8573;BME280;4324;42.012;24.872;2023-01-23T06:53:12;99949.38;;;8.81;100.00
8573;BME280;4324;42.012;24.872;2023-01-23T06:55:41;99924.84;;;8.69;100.00
8573;BME280;4324;42.012;24.872;2023-01-23T06:58:08;99940.34;;;8.83;100.00
8573;BME280;4324;42.012;24.872;2023-01-23T07:00:35;99960.00;;;8.90;100.00
8573;BME280;4324;42.012;24.872;2023-01-23T07:03:02;99967.75;;;8.92;100.00
8573;BME280;4324;42.012;24.872;2023-01-23T07:05:30;99905.38;;;8.60;100.00
8573;BME280;4324;42.012;24.872;2023-01-23T07:07:57;99907.44;;;8.57;100.00
8573;BME280;4324;42.012;24.872;2023-01-23T07:10:24;99913.97;;;8.62;100.00
8573;BME280;4324;42.012;24.872;2023-01-23T07:12:52;99970.59;;;9.00;100.00
8573;BME280;4324;42.012;24.872;2023-01-23T07:15:19;99947.88;;;8.88;100.00
8573;BME280;4324;42.012;24.872;2023-01-23T07:17:47;99971.03;;;9.05;100.00
8573;BME280;4324;42.012;24.872;2023-01-23T07:20:17;99963.13;;;9.05;100.00
8573;BME280;4324;42.012;24.872;2023-01-23T07:22:59;99961.41;;;9.04;100.00
8573;BME280;4324;42.012;24.872;2023-01-23T07:25:25;99938.97;;;8.89;100.00
8573;BME280;4324;42.012;24.872;2023-01-23T07:27:53;99954.63;;;9.02;100.00
8573;BME280;4324;42.012;24.872;2023-01-23T07:30:20;99931.44;;;8.84;100.00
8573;BME280;4324;42.012;24.872;2023-01-23T07:32:47;99959.75;;;9.03;100.00
8573;BME280;4324;42.012;24.872;2023-01-23T07:35:14;99941.34;;;8.92;100.00
8573;BME280;4324;42.012;24.872;2023-01-23T07:37:41;99937.88;;;8.91;100.00
8573;BME280;4324;42.012;24.872;2023-01-23T07:40:10;99961.88;;;9.09;100.00
8573;BME280;4324;42.012;24.872;2023-01-23T07:42:38;99959.22;;;9.09;100.00
8573;BME280;4324;42.012;24.872;2023-01-23T07:45:07;99959.09;;;9.11;100.00
8573;BME280;4324;42.012;24.872;2023-01-23T07:47:34;99959.91;;;9.11;100.00
8573;BME280;4324;42.012;24.872;2023-01-23T07:50:01;99961.31;;;9.15;100.00
8573;BME280;4324;42.012;24.872;2023-01-23T07:52:28;99947.84;;;9.09;100.00
8573;BME280;4324;42.012;24.872;2023-01-23T07:54:55;99941.00;;;9.06;100.00
8573;BME280;4324;42.012;24.872;2023-01-23T07:57:23;99961.06;;;9.18;100.00
8573;BME280;4324;42.012;24.872;2023-01-23T07:59:50;99963.97;;;9.15;100.00
8573;BME280;4324;42.012;24.872;2023-01-23T08:02:17;99960.38;;;9.16;100.00
8573;BME280;4324;42.012;24.872;2023-01-23T08:04:44;99942.81;;;9.15;100.00
8573;BME280;4324;42.012;24.872;2023-01-23T08:07:11;99960.53;;;9.25;100.00
8573;BME280;4324;42.012;24.872;2023-01-23T08:09:38;99972.25;;;9.32;100.00
8573;BME280;4324;42.012;24.872;2023-01-23T08:12:05;99975.88;;;9.31;100.00
8573;BME280;4324;42.012;24.872;2023-01-23T08:14:34;99973.22;;;9.31;100.00
8573;BME280;4324;42.012;24.872;2023-01-23T08:17:01;99969.88;;;9.29;100.00
8573;BME280;4324;42.012;24.872;2023-01-23T08:19:28;99979.47;;;9.30;100.00
8573;BME280;4324;42.012;24.872;2023-01-23T08:21:55;99984.63;;;9.31;100.00
8573;BME280;4324;42.012;24.872;2023-01-23T08:24:22;99979.34;;;9.31;100.00
8573;BME280;4324;42.012;24.872;2023-01-23T08:26:49;99978.38;;;9.32;100.00
8573;BME280;4324;42.012;24.872;2023-01-23T08:29:16;99964.16;;;9.24;100.00
8573;BME280;4324;42.012;24.872;2023-01-23T08:31:45;99967.75;;;9.23;100.00
8573;BME280;4324;42.012;24.872;2023-01-23T08:34:12;99981.41;;;9.28;100.00
8573;BME280;4324;42.012;24.872;2023-01-23T08:36:39;99985.59;;;9.30;100.00
8573;BME280;4324;42.012;24.872;2023-01-23T08:39:07;99977.53;;;9.32;100.00
8573;BME280;4324;42.012;24.872;2023-01-23T08:41:34;99989.25;;;9.39;100.00
8573;BME280;4324;42.012;24.872;2023-01-23T08:44:01;99982.56;;;9.35;100.00
8573;BME280;4324;42.012;24.872;2023-01-23T08:46:28;99995.47;;;9.38;100.00
8573;BME280;4324;42.012;24.872;2023-01-23T08:48:57;99955.22;;;9.15;100.00
8573;BME280;4324;42.012;24.872;2023-01-23T08:51:24;99985.88;;;9.37;100.00
8573;BME280;4324;42.012;24.872;2023-01-23T08:53:52;99986.47;;;9.40;100.00
8573;BME280;4324;42.012;24.872;2023-01-23T08:56:20;99997.59;;;9.44;100.00
8573;BME280;4324;42.012;24.872;2023-01-23T08:58:48;99995.22;;;9.41;100.00
8573;BME280;4324;42.012;24.872;2023-01-23T09:01:17;99999.00;;;9.38;100.00
8573;BME280;4324;42.012;24.872;2023-01-23T09:03:45;99982.38;;;9.27;100.00
8573;BME280;4324;42.012;24.872;2023-01-23T09:06:15;100003.72;;;9.35;100.00
8573;BME280;4324;42.012;24.872;2023-01-23T09:08:42;99996.88;;;9.32;100.00
8573;BME280;4324;42.012;24.872;2023-01-23T09:11:10;99996.47;;;9.37;100.00
8573;BME280;4324;42.012;24.872;2023-01-23T09:13:38;99919.25;;;8.93;100.00
8573;BME280;4324;42.012;24.872;2023-01-23T09:16:07;99978.94;;;9.36;100.00
8573;BME280;4324;42.012;24.872;2023-01-23T09:18:35;99980.59;;;9.37;100.00
8573;BME280;4324;42.012;24.872;2023-01-23T09:21:05;99977.28;;;9.35;100.00
8573;BME280;4324;42.012;24.872;2023-01-23T09:23:33;99976.97;;;9.38;100.00
8573;BME280;4324;42.012;24.872;2023-01-23T09:26:04;99979.81;;;9.46;100.00
8573;BME280;4324;42.012;24.872;2023-01-23T09:28:32;99952.09;;;9.31;100.00
8573;BME280;4324;42.012;24.872;2023-01-23T09:31:02;99951.38;;;9.29;100.00
8573;BME280;4324;42.012;24.872;2023-01-23T09:33:29;99984.28;;;9.55;100.00
8573;BME280;4324;42.012;24.872;2023-01-23T09:35:56;99937.16;;;9.30;100.00
8573;BME280;4324;42.012;24.872;2023-01-23T09:38:23;99943.75;;;9.35;100.00
8573;BME280;4324;42.012;24.872;2023-01-23T09:40:54;99959.91;;;9.52;100.00
8573;BME280;4324;42.012;24.872;2023-01-23T09:43:33;99953.06;;;9.39;100.00
8573;BME280;4324;42.012;24.872;2023-01-23T09:46:06;99955.31;;;9.44;100.00
8573;BME280;4324;42.012;24.872;2023-01-23T09:48:42;99952.69;;;9.54;100.00
8573;BME280;4324;42.012;24.872;2023-01-23T09:51:15;99922.72;;;9.34;100.00
8573;BME280;4324;42.012;24.872;2023-01-23T09:53:46;99952.69;;;9.54;100.00
8573;BME280;4324;42.012;24.872;2023-01-23T09:56:27;99967.47;;;9.66;100.00
8573;BME280;4324;42.012;24.872;2023-01-23T09:59:01;99972.59;;;9.67;100.00
8573;BME280;4324;42.012;24.872;2023-01-23T10:01:30;99963.84;;;9.67;100.00
8573;BME280;4324;42.012;24.872;2023-01-23T10:03:58;99951.44;;;9.58;100.00
8573;BME280;4324;42.012;24.872;2023-01-23T10:06:29;99962.03;;;9.67;100.00
8573;BME280;4324;42.012;24.872;2023-01-23T10:09:19;99950.03;;;9.63;100.00
8573;BME280;4324;42.012;24.872;2023-01-23T10:12:00;99950.34;;;9.60;100.00
8573;BME280;4324;42.012;24.872;2023-01-23T10:14:56;99948.13;;;9.65;100.00
8573;BME280;4324;42.012;24.872;2023-01-23T10:17:33;99956.31;;;9.62;100.00
8573;BME280;4324;42.012;24.872;2023-01-23T10:20:25;99952.53;;;9.55;100.00
8573;BME280;4324;42.012;24.872;2023-01-23T10:23:06;99946.97;;;9.49;100.00
8573;BME280;4324;42.012;24.872;2023-01-23T10:25:37;99935.81;;;9.45;100.00
8573;BME280;4324;42.012;24.872;2023-01-23T10:28:17;99935.53;;;9.38;100.00
8573;BME280;4324;42.012;24.872;2023-01-23T10:30:51;99948.63;;;9.40;100.00
8573;BME280;4324;42.012;24.872;2023-01-23T10:33:26;99949.84;;;9.36;100.00
8573;BME280;4324;42.012;24.872;2023-01-23T10:36:00;99946.25;;;9.37;100.00
8573;BME280;4324;42.012;24.872;2023-01-23T10:38:42;99946.25;;;9.37;100.00
8573;BME280;4324;42.012;24.872;2023-01-23T10:41:12;99921.88;;;9.24;100.00
8573;BME280;4324;42.012;24.872;2023-01-23T10:43:41;99917.72;;;9.31;100.00
8573;BME280;4324;42.012;24.872;2023-01-23T10:46:10;99907.41;;;9.28;100.00
8573;BME280;4324;42.012;24.872;2023-01-23T10:48:42;99929.84;;;9.43;100.00
8573;BME280;4324;42.012;24.872;2023-01-23T10:51:27;99931.66;;;9.42;100.00
8573;BME280;4324;42.012;24.872;2023-01-23T10:54:08;99913.53;;;9.38;100.00
8573;BME280;4324;42.012;24.872;2023-01-23T10:56:45;99921.09;;;9.42;100.00
8573;BME280;4324;42.012;24.872;2023-01-23T10:59:20;99900.44;;;9.27;100.00
8573;BME280;4324;42.012;24.872;2023-01-23T11:01:56;99911.59;;;9.40;100.00
8573;BME280;4324;42.012;24.872;2023-01-23T11:04:26;99907.88;;;9.42;100.00
8573;BME280;4324;42.012;24.872;2023-01-23T11:07:02;99911.06;;;9.46;100.00
8573;BME280;4324;42.012;24.872;2023-01-23T11:09:30;99885.03;;;9.32;100.00
8573;BME280;4324;42.012;24.872;2023-01-23T11:12:02;99908.00;;;9.51;100.00
8573;BME280;4324;42.012;24.872;2023-01-23T11:14:31;99909.81;;;9.50;100.00
8573;BME280;4324;42.012;24.872;2023-01-23T11:17:01;99918.59;;;9.51;100.00
8573;BME280;4324;42.012;24.872;2023-01-23T11:19:30;99910.50;;;9.52;100.00
8573;BME280;4324;42.012;24.872;2023-01-23T11:21:59;99912.59;;;9.49;100.00
8573;BME280;4324;42.012;24.872;2023-01-23T11:24:33;99898.50;;;9.29;100.00
8573;BME280;4324;42.012;24.872;2023-01-23T11:27:02;99914.25;;;9.40;100.00
8573;BME280;4324;42.012;24.872;2023-01-23T11:29:46;99924.25;;;9.36;100.00
8573;BME280;4324;42.012;24.872;2023-01-23T11:32:16;99894.56;;;9.13;100.00
8573;BME280;4324;42.012;24.872;2023-01-23T11:34:46;99918.25;;;9.25;100.00
8573;BME280;4324;42.012;24.872;2023-01-23T11:37:18;99914.63;;;9.16;100.00
8573;BME280;4324;42.012;24.872;2023-01-23T11:39:49;99901.78;;;9.02;100.00
8573;BME280;4324;42.012;24.872;2023-01-23T11:42:19;99905.66;;;9.07;100.00
8573;BME280;4324;42.012;24.872;2023-01-23T11:44:48;99925.63;;;9.21;100.00
8573;BME280;4324;42.012;24.872;2023-01-23T11:47:38;99925.47;;;9.23;100.00
8573;BME280;4324;42.012;24.872;2023-01-23T11:50:21;99933.97;;;9.26;100.00
8573;BME280;4324;42.012;24.872;2023-01-23T11:52:59;99925.34;;;9.24;100.00
8573;BME280;4324;42.012;24.872;2023-01-23T11:55:51;99927.41;;;9.20;100.00
8573;BME280;4324;42.012;24.872;2023-01-23T11:58:30;99932.44;;;9.24;100.00
8573;BME280;4324;42.012;24.872;2023-01-23T12:01:09;99930.06;;;9.20;100.00
8573;BME280;4324;42.012;24.872;2023-01-23T12:06:56;99921.78;;;9.04;100.00
8573;BME280;4324;42.012;24.872;2023-01-23T12:09:31;99934.47;;;9.10;100.00
8573;BME280;4324;42.012;24.872;2023-01-23T12:12:09;99945.63;;;9.14;100.00
8573;BME280;4324;42.012;24.872;2023-01-23T12:14:48;99945.03;;;9.10;100.00
8573;BME280;4324;42.012;24.872;2023-01-23T12:17:24;99944.78;;;9.13;100.00
8573;BME280;4324;42.012;24.872;2023-01-23T12:20:04;99939.19;;;9.07;100.00
8573;BME280;4324;42.012;24.872;2023-01-23T12:22:48;99945.75;;;9.12;100.00
8573;BME280;4324;42.012;24.872;2023-01-23T12:25:23;99921.50;;;8.98;100.00
8573;BME280;4324;42.012;24.872;2023-01-23T12:27:59;99949.50;;;9.10;100.00
8573;BME280;4324;42.012;24.872;2023-01-23T12:30:54;99946.41;;;9.05;100.00
8573;BME280;4324;42.012;24.872;2023-01-23T12:33:49;99949.34;;;9.02;100.00
8573;BME280;4324;42.012;24.872;2023-01-23T12:36:30;99959.09;;;9.11;100.00
8573;BME280;4324;42.012;24.872;2023-01-23T12:39:06;99948.22;;;9.04;100.00
8573;BME280;4324;42.012;24.872;2023-01-23T12:41:38;99968.31;;;9.16;100.00
8573;BME280;4324;42.012;24.872;2023-01-23T12:44:11;99968.00;;;9.10;100.00
8573;BME280;4324;42.012;24.872;2023-01-23T12:46:42;99942.75;;;8.96;100.00
8573;BME280;4324;42.012;24.872;2023-01-23T12:49:23;99944.13;;;8.90;100.00
8573;BME280;4324;42.012;24.872;2023-01-23T12:51:57;99956.09;;;8.94;100.00
8573;BME280;4324;42.012;24.872;2023-01-23T12:54:32;99958.88;;;8.93;100.00
8573;BME280;4324;42.012;24.872;2023-01-23T12:57:03;99952.06;;;8.90;100.00
8573;BME280;4324;42.012;24.872;2023-01-23T12:59:40;99970.31;;;9.03;100.00
8573;BME280;4324;42.012;24.872;2023-01-23T13:02:20;99932.25;;;8.75;100.00
8573;BME280;4324;42.012;24.872;2023-01-23T13:05:05;99966.28;;;8.99;100.00
8573;BME280;4324;42.012;24.872;2023-01-23T13:07:43;99971.56;;;8.99;100.00
8573;BME280;4324;42.012;24.872;2023-01-23T13:10:23;99894.84;;;8.49;100.00
8573;BME280;4324;42.012;24.872;2023-01-23T13:13:12;99954.00;;;8.88;100.00
8573;BME280;4324;42.012;24.872;2023-01-23T13:15:41;99977.81;;;8.98;100.00
8573;BME280;4324;42.012;24.872;2023-01-23T13:18:21;99967.63;;;8.93;100.00
8573;BME280;4324;42.012;24.872;2023-01-23T13:20:56;99929.13;;;8.60;100.00
8573;BME280;4324;42.012;24.872;2023-01-23T13:23:41;99946.00;;;8.79;100.00
8573;BME280;4324;42.012;24.872;2023-01-23T13:26:29;99967.09;;;8.90;100.00
8573;BME280;4324;42.012;24.872;2023-01-23T13:29:00;99955.38;;;8.83;100.00
8573;BME280;4324;42.012;24.872;2023-01-23T13:31:37;99966.63;;;8.85;100.00